createdAt,value
2023-03-16T00:02:19.329Z,101704.88
2023-03-16T00:04:47.667Z,101703.06
2023-03-16T00:07:15.896Z,101699.59
2023-03-16T00:09:43.148Z,101702.25
2023-03-16T00:12:15.988Z,101695.16
2023-03-16T00:14:48.646Z,101694.19
2023-03-16T00:17:20.733Z,101684.16
2023-03-16T00:19:51.846Z,101681.88
2023-03-16T00:22:19.662Z,101694.69
2023-03-16T00:24:46.682Z,101695.56
2023-03-16T00:27:15.360Z,101692.75
2023-03-16T00:29:48.377Z,101696.28
2023-03-16T00:32:19.675Z,101687.50
2023-03-16T00:34:48.772Z,101694.34
2023-03-16T00:37:17.774Z,101705.53
2023-03-16T00:39:47.078Z,101696.91
2023-03-16T00:42:16.157Z,101690.69
2023-03-16T00:44:43.577Z,101689.75
2023-03-16T00:47:14.941Z,101686.25
2023-03-16T00:49:43.854Z,101683.50
2023-03-16T00:52:15.043Z,101698.88
2023-03-16T00:54:47.895Z,101704.13
2023-03-16T00:57:19.059Z,101693.75
2023-03-16T00:59:52.917Z,101693.66
2023-03-16T01:02:37.298Z,101685.88
2023-03-16T01:05:29.634Z,101690.94
2023-03-16T01:08:31.274Z,101687.19
2023-03-16T01:11:18.743Z,101684.47
2023-03-16T01:14:19.664Z,101681.88
2023-03-16T01:17:19.257Z,101683.53
2023-03-16T01:20:02.200Z,101680.88
2023-03-16T01:22:30.878Z,101680.00
2023-03-16T01:25:06.710Z,101691.31
2023-03-16T01:27:39.992Z,101687.53
2023-03-16T01:30:16.722Z,101683.16
2023-03-16T01:32:56.666Z,101689.41
2023-03-16T01:35:25.007Z,101674.38
2023-03-16T01:38:13.217Z,101673.47
2023-03-16T01:40:56.300Z,101674.34
2023-03-16T01:43:35.258Z,101674.28
2023-03-16T01:46:08.888Z,101674.09
2023-03-16T01:48:53.229Z,101666.13
2023-03-16T01:51:53.891Z,101665.84
2023-03-16T01:54:37.871Z,101665.94
2023-03-16T01:57:17.124Z,101668.44
2023-03-16T02:00:09.903Z,101663.13
2023-03-16T02:02:56.305Z,101656.19
2023-03-16T02:05:38.716Z,101656.38
2023-03-16T02:08:08.493Z,101651.22
2023-03-16T02:10:37.674Z,101644.16
2023-03-16T02:13:05.137Z,101640.84
2023-03-16T02:15:32.643Z,101637.94
2023-03-16T02:18:00.957Z,101629.09
2023-03-16T02:20:52.131Z,101624.34
2023-03-16T02:23:21.388Z,101620.81
2023-03-16T02:26:34.348Z,101632.81
2023-03-16T02:29:23.409Z,101617.25
2023-03-16T02:31:52.889Z,101621.78
2023-03-16T02:34:20.298Z,101626.13
2023-03-16T02:36:49.989Z,101626.16
2023-03-16T02:39:20.901Z,101623.44
2023-03-16T02:41:48.437Z,101620.78
2023-03-16T02:44:29.345Z,101612.22
2023-03-16T02:47:03.653Z,101617.91
2023-03-16T02:49:45.548Z,101619.56
2023-03-16T02:52:12.962Z,101613.38
2023-03-16T02:54:40.128Z,101605.72
2023-03-16T02:57:09.219Z,101594.41
2023-03-16T02:59:36.675Z,101583.31
2023-03-16T03:02:04.057Z,101591.88
2023-03-16T03:04:33.301Z,101579.69
2023-03-16T03:07:04.930Z,101580.59
2023-03-16T03:09:43.188Z,101582.28
2023-03-16T03:12:11.100Z,101569.16
2023-03-16T03:14:38.902Z,101569.25
2023-03-16T03:17:10.268Z,101573.81
2023-03-16T03:19:37.313Z,101576.41
2023-03-16T03:22:06.597Z,101578.09
2023-03-16T03:24:35.017Z,101580.69
2023-03-16T03:27:06.091Z,101574.69
2023-03-16T03:29:36.292Z,101567.53
2023-03-16T03:32:05.309Z,101575.47
2023-03-16T03:34:33.100Z,101574.50
2023-03-16T03:37:01.346Z,101578.97
2023-03-16T03:39:29.039Z,101584.31
2023-03-16T03:41:57.108Z,101575.66
2023-03-16T03:44:25.058Z,101576.50
2023-03-16T03:46:53.054Z,101569.50
2023-03-16T03:49:20.909Z,101571.19
2023-03-16T03:51:52.954Z,101579.69
2023-03-16T03:54:25.289Z,101583.16
2023-03-16T03:57:12.680Z,101588.91
2023-03-16T03:59:43.918Z,101573.47
2023-03-16T04:02:14.772Z,101585.59
2023-03-16T04:04:50.137Z,101589.75
2023-03-16T04:07:20.354Z,101600.03
2023-03-16T04:09:49.388Z,101594.69
2023-03-16T04:12:24.594Z,101587.47
2023-03-16T04:14:52.682Z,101594.47
2023-03-16T04:17:21.210Z,101600.59
2023-03-16T04:19:50.678Z,101598.59
2023-03-16T04:22:18.545Z,101603.63
2023-03-16T04:24:47.004Z,101611.41
2023-03-16T04:27:14.822Z,101603.38
2023-03-16T04:29:42.177Z,101602.38
2023-03-16T04:32:09.511Z,101613.69
2023-03-16T04:34:38.631Z,101611.03
2023-03-16T04:37:06.974Z,101618.09
2023-03-16T04:39:36.857Z,101618.75
2023-03-16T04:42:04.006Z,101616.38
2023-03-16T04:44:34.432Z,101611.88
2023-03-16T04:47:01.789Z,101615.25
2023-03-16T04:49:36.587Z,101617.50
2023-03-16T04:52:04.847Z,101624.59
2023-03-16T04:54:33.396Z,101616.50
2023-03-16T04:57:01.343Z,101612.38
2023-03-16T04:59:34.838Z,101609.69
2023-03-16T05:02:10.027Z,101610.53
2023-03-16T05:04:37.731Z,101608.84
2023-03-16T05:07:06.975Z,101609.69
2023-03-16T05:09:39.187Z,101605.41
2023-03-16T05:12:07.350Z,101603.63
2023-03-16T05:14:36.584Z,101606.97
2023-03-16T05:17:19.893Z,101607.94
2023-03-16T05:19:47.415Z,101599.16
2023-03-16T05:22:16.936Z,101600.19
2023-03-16T05:25:07.402Z,101605.16
2023-03-16T05:27:35.434Z,101601.00
2023-03-16T05:30:05.118Z,101598.94
2023-03-16T05:32:33.716Z,101610.25
2023-03-16T05:35:00.868Z,101605.97
2023-03-16T05:37:28.093Z,101596.50
2023-03-16T05:39:55.069Z,101599.00
2023-03-16T05:42:22.253Z,101588.59
2023-03-16T05:44:55.127Z,101596.31
2023-03-16T05:47:37.479Z,101593.06
2023-03-16T05:50:11.378Z,101599.03
2023-03-16T05:52:42.348Z,101590.22
2023-03-16T05:55:17.575Z,101589.28
2023-03-16T05:57:49.459Z,101597.19
2023-03-16T06:00:19.829Z,101598.75
2023-03-16T06:02:54.914Z,101602.97
2023-03-16T06:05:26.425Z,101596.91
2023-03-16T06:07:53.714Z,101601.16
2023-03-16T06:10:21.346Z,101603.72
2023-03-16T06:12:48.561Z,101611.38
2023-03-16T06:15:15.681Z,101615.91
2023-03-16T06:17:42.858Z,101618.19
2023-03-16T06:20:13.338Z,101613.91
2023-03-16T06:22:43.165Z,101618.50
2023-03-16T06:25:12.797Z,101608.00
2023-03-16T06:27:41.647Z,101617.63
2023-03-16T06:30:15.093Z,101620.06
2023-03-16T06:32:43.129Z,101616.75
2023-03-16T06:35:11.594Z,101618.44
2023-03-16T06:37:43.368Z,101616.50
2023-03-16T06:40:39.712Z,101619.63
2023-03-16T06:43:07.192Z,101618.94
2023-03-16T06:45:34.241Z,101625.16
2023-03-16T06:48:01.578Z,101619.03
2023-03-16T06:50:29.464Z,101626.03
2023-03-16T06:52:56.822Z,101620.91
2023-03-16T06:55:23.985Z,101631.16
2023-03-16T06:57:51.012Z,101632.81
2023-03-16T07:00:19.364Z,101634.69
2023-03-16T07:02:46.447Z,101630.50
2023-03-16T07:05:18.135Z,101631.41
2023-03-16T07:07:47.170Z,101643.72
2023-03-16T07:10:17.864Z,101648.69
2023-03-16T07:12:46.083Z,101648.25
2023-03-16T07:15:14.014Z,101650.25
2023-03-16T07:17:42.762Z,101648.56
2023-03-16T07:20:11.668Z,101654.78
2023-03-16T07:22:40.435Z,101640.44
2023-03-16T07:25:11.643Z,101648.22
2023-03-16T07:27:45.700Z,101648.47
2023-03-16T07:30:16.418Z,101661.19
2023-03-16T07:32:46.387Z,101657.53
2023-03-16T07:35:14.659Z,101662.91
2023-03-16T07:37:42.228Z,101661.03
2023-03-16T07:40:10.881Z,101658.56
2023-03-16T07:42:38.521Z,101658.75
2023-03-16T07:45:10.570Z,101662.34
2023-03-16T07:47:38.208Z,101661.50
2023-03-16T07:50:27.850Z,101657.25
2023-03-16T07:52:55.942Z,101659.16
2023-03-16T07:55:22.967Z,101655.75
2023-03-16T07:57:51.965Z,101661.25
2023-03-16T08:00:26.561Z,101660.47
2023-03-16T08:02:55.374Z,101652.81
2023-03-16T08:05:22.648Z,101659.38
2023-03-16T08:07:57.502Z,101646.50
2023-03-16T08:10:28.418Z,101653.56
2023-03-16T08:13:05.059Z,101654.47
2023-03-16T08:15:34.123Z,101660.22
2023-03-16T08:18:08.820Z,101653.66
2023-03-16T08:20:36.254Z,101656.72
2023-03-16T08:23:05.763Z,101656.53
2023-03-16T08:25:38.981Z,101658.84
2023-03-16T08:28:16.168Z,101657.69
2023-03-16T08:30:48.950Z,101657.91
2023-03-16T08:33:38.820Z,101653.75
2023-03-16T08:36:08.776Z,101657.84
2023-03-16T08:38:36.226Z,101663.72
2023-03-16T08:41:08.577Z,101655.31
2023-03-16T08:43:37.648Z,101656.69
2023-03-16T08:46:05.734Z,101649.13
2023-03-16T08:48:46.724Z,101648.47
2023-03-16T08:51:15.011Z,101655.66
2023-03-16T08:53:44.164Z,101660.78
2023-03-16T08:56:13.750Z,101657.75
2023-03-16T08:58:45.717Z,101643.91
2023-03-16T09:01:15.644Z,101656.38
2023-03-16T09:03:45.884Z,101649.97
2023-03-16T09:06:15.657Z,101652.47
2023-03-16T09:08:45.574Z,101650.94
2023-03-16T09:11:14.984Z,101648.53
2023-03-16T09:13:45.586Z,101659.94
2023-03-16T09:16:15.979Z,101657.47
2023-03-16T09:18:43.694Z,101646.19
2023-03-16T09:21:14.301Z,101659.50
2023-03-16T09:23:43.260Z,101666.75
2023-03-16T09:26:12.988Z,101660.28
2023-03-16T09:28:42.541Z,101653.44
2023-03-16T09:31:23.234Z,101655.31
2023-03-16T09:33:50.501Z,101646.66
2023-03-16T09:36:17.826Z,101640.53
2023-03-16T09:38:45.159Z,101637.91
2023-03-16T09:41:36.987Z,101640.53
2023-03-16T09:44:18.145Z,101639.63
2023-03-16T09:46:49.169Z,101635.25
2023-03-16T09:49:21.217Z,101623.75
2023-03-16T09:52:00.548Z,101629.06
2023-03-16T09:54:48.484Z,101631.75
2023-03-16T09:57:26.544Z,101627.25
2023-03-16T09:59:55.172Z,101621.97
2023-03-16T10:02:47.371Z,101614.09
2023-03-16T10:05:17.378Z,101630.69
2023-03-16T10:08:06.006Z,101629.91
2023-03-16T10:11:01.155Z,101631.63
2023-03-16T10:13:28.243Z,101628.16
2023-03-16T10:15:59.830Z,101623.81
2023-03-16T10:18:33.342Z,101625.56
2023-03-16T10:21:00.645Z,101623.81
2023-03-16T10:23:27.701Z,101619.41
2023-03-16T10:25:56.160Z,101626.44
2023-03-16T10:28:28.747Z,101619.44
2023-03-16T10:31:00.134Z,101609.72
2023-03-16T10:33:30.424Z,101613.28
2023-03-16T10:36:05.846Z,101616.59
2023-03-16T10:38:50.700Z,101618.53
2023-03-16T10:41:23.127Z,101602.53
2023-03-16T10:44:07.750Z,101607.75
2023-03-16T10:46:40.949Z,101600.47
2023-03-16T10:49:43.711Z,101602.59
2023-03-16T10:52:23.705Z,101604.25
2023-03-16T10:55:01.970Z,101607.06
2023-03-16T10:57:42.928Z,101596.44
2023-03-16T11:00:24.980Z,101595.44
2023-03-16T11:02:57.265Z,101599.09
2023-03-16T11:05:33.940Z,101593.75
2023-03-16T11:08:10.535Z,101578.69
2023-03-16T11:10:49.394Z,101590.75
2023-03-16T11:13:21.963Z,101596.56
2023-03-16T11:16:07.831Z,101596.19
2023-03-16T11:18:59.654Z,101593.72
2023-03-16T11:22:06.670Z,101595.81
2023-03-16T11:25:11.055Z,101589.81
2023-03-16T11:28:05.501Z,101589.88
2023-03-16T11:30:46.390Z,101600.91
2023-03-16T11:33:15.557Z,101591.78
2023-03-16T11:35:56.429Z,101590.03
2023-03-16T11:38:37.851Z,101581.84
2023-03-16T11:41:50.760Z,101580.88
2023-03-16T11:44:20.494Z,101578.50
2023-03-16T11:47:08.470Z,101576.06
2023-03-16T11:49:48.204Z,101577.69
2023-03-16T11:52:33.531Z,101574.34
2023-03-16T11:55:29.009Z,101573.97
2023-03-16T11:58:17.473Z,101564.03
2023-03-16T12:01:16.631Z,101565.47
2023-03-16T12:04:21.566Z,101560.13
2023-03-16T12:07:13.672Z,101562.66
2023-03-16T12:09:44.737Z,101560.63
2023-03-16T12:12:47.925Z,101560.69
2023-03-16T12:16:07.880Z,101566.22
2023-03-16T12:18:47.999Z,101546.44
2023-03-16T12:21:23.167Z,101551.47
2023-03-16T12:23:50.250Z,101549.09
2023-03-16T12:26:19.795Z,101547.19
2023-03-16T12:28:48.686Z,101544.69
2023-03-16T12:31:47.048Z,101542.16
2023-03-16T12:34:20.352Z,101523.25
2023-03-16T12:37:15.107Z,101514.19
2023-03-16T12:40:09.388Z,101509.84
2023-03-16T12:42:49.088Z,101512.31
2023-03-16T12:45:51.995Z,101509.94
2023-03-16T12:48:30.133Z,101499.38
2023-03-16T12:51:00.546Z,101495.44
2023-03-16T12:53:47.119Z,101495.47
2023-03-16T12:56:18.090Z,101496.00
2023-03-16T12:58:50.831Z,101501.09
2023-03-16T13:01:21.964Z,101491.69
2023-03-16T13:03:51.211Z,101497.00
2023-03-16T13:06:24.519Z,101494.09
2023-03-16T13:09:00.031Z,101474.75
2023-03-16T13:11:28.833Z,101484.06
2023-03-16T13:14:01.930Z,101466.44
2023-03-16T13:16:32.212Z,101474.50
2023-03-16T13:19:01.023Z,101478.34
2023-03-16T13:21:40.381Z,101471.16
2023-03-16T13:24:14.012Z,101472.84
2023-03-16T13:26:53.927Z,101483.06
2023-03-16T13:29:33.489Z,101462.81
2023-03-16T13:32:06.587Z,101460.84
2023-03-16T13:34:45.079Z,101465.88
2023-03-16T13:37:16.870Z,101469.94
2023-03-16T13:39:55.238Z,101464.03
2023-03-16T13:42:24.653Z,101451.75
2023-03-16T13:44:57.834Z,101473.41
2023-03-16T13:47:29.277Z,101469.34
2023-03-16T13:50:00.891Z,101477.19
2023-03-16T13:52:36.999Z,101478.53
2023-03-16T13:55:15.618Z,101463.03
2023-03-16T13:57:45.566Z,101462.03
2023-03-16T14:00:19.035Z,101468.13
2023-03-16T14:02:47.737Z,101465.00
2023-03-16T14:05:22.859Z,101459.13
2023-03-16T14:07:52.966Z,101457.28
2023-03-16T14:10:21.862Z,101467.13
2023-03-16T14:13:10.909Z,101476.31
2023-03-16T14:15:39.022Z,101475.78
2023-03-16T14:18:22.831Z,101476.78
2023-03-16T14:20:55.504Z,101483.09
2023-03-16T14:23:37.307Z,101486.59
2023-03-16T14:26:12.852Z,101491.28
2023-03-16T14:28:40.222Z,101495.34
2023-03-16T14:31:13.520Z,101500.75
2023-03-16T14:33:43.932Z,101502.50
2023-03-16T14:36:17.728Z,101512.22
2023-03-16T14:38:49.146Z,101493.78
2023-03-16T14:41:24.656Z,101491.16
2023-03-16T14:43:59.765Z,101495.56
2023-03-16T14:46:37.793Z,101501.72
2023-03-16T14:49:20.767Z,101510.47
2023-03-16T14:51:50.555Z,101499.94
2023-03-16T14:54:22.022Z,101509.50
2023-03-16T14:56:55.004Z,101496.44
2023-03-16T14:59:22.609Z,101499.06
2023-03-16T15:01:51.003Z,101499.03
2023-03-16T15:04:25.335Z,101513.09
2023-03-16T15:06:52.640Z,101506.94
2023-03-16T15:09:38.301Z,101514.75
2023-03-16T15:12:14.585Z,101519.88
2023-03-16T15:15:00.135Z,101510.88
2023-03-16T15:17:27.802Z,101515.38
2023-03-16T15:19:55.266Z,101514.28
2023-03-16T15:22:37.707Z,101508.59
2023-03-16T15:25:23.185Z,101513.75
2023-03-16T15:27:51.491Z,101508.09
2023-03-16T15:30:28.867Z,101509.25
2023-03-16T15:32:56.834Z,101498.78
2023-03-16T15:35:27.914Z,101504.72
2023-03-16T15:37:55.241Z,101489.13
2023-03-16T15:40:29.783Z,101485.63
2023-03-16T15:42:57.896Z,101488.25
2023-03-16T15:45:25.781Z,101495.28
2023-03-16T15:47:54.023Z,101489.84
2023-03-16T15:50:24.845Z,101481.88
2023-03-16T15:53:09.072Z,101479.19
2023-03-16T15:55:42.107Z,101478.22
2023-03-16T15:58:24.527Z,101469.56
2023-03-16T16:00:55.923Z,101476.56
2023-03-16T16:03:28.049Z,101474.72
2023-03-16T16:05:55.849Z,101478.38
2023-03-16T16:08:23.077Z,101479.94
2023-03-16T16:10:51.828Z,101479.16
2023-03-16T16:13:44.304Z,101486.19
2023-03-16T16:16:18.150Z,101479.81
2023-03-16T16:18:47.748Z,101481.72
2023-03-16T16:21:18.161Z,101495.00
2023-03-16T16:23:46.320Z,101494.50
2023-03-16T16:26:18.983Z,101498.69
2023-03-16T16:28:47.825Z,101492.94
2023-03-16T16:31:15.113Z,101505.03
2023-03-16T16:33:42.189Z,101501.56
2023-03-16T16:36:19.296Z,101498.97
2023-03-16T16:38:47.880Z,101485.72
2023-03-16T16:41:28.514Z,101490.00
2023-03-16T16:43:56.521Z,101493.63
2023-03-16T16:46:28.847Z,101489.16
2023-03-16T16:49:07.336Z,101493.72
2023-03-16T16:51:34.666Z,101487.31
2023-03-16T16:54:02.392Z,101496.22
2023-03-16T16:56:32.659Z,101494.22
2023-03-16T16:59:11.170Z,101490.50
2023-03-16T17:01:39.199Z,101490.91
2023-03-16T17:04:13.618Z,101498.22
2023-03-16T17:06:41.615Z,101503.22
2023-03-16T17:09:09.995Z,101504.81
2023-03-16T17:11:37.770Z,101502.50
2023-03-16T17:14:07.908Z,101495.53
2023-03-16T17:16:38.146Z,101506.56
2023-03-16T17:19:14.859Z,101504.66
2023-03-16T17:21:42.200Z,101499.56
2023-03-16T17:24:09.486Z,101496.16
2023-03-16T17:26:42.974Z,101502.13
2023-03-16T17:29:31.956Z,101503.69
2023-03-16T17:32:08.695Z,101498.50
2023-03-16T17:34:36.103Z,101503.16
2023-03-16T17:37:03.054Z,101510.63
2023-03-16T17:39:32.912Z,101508.25
2023-03-16T17:42:02.830Z,101501.53
2023-03-16T17:44:53.507Z,101499.66
2023-03-16T17:47:23.242Z,101504.50
2023-03-16T17:49:51.567Z,101506.31
2023-03-16T17:52:23.534Z,101505.69
2023-03-16T17:54:54.189Z,101501.91
2023-03-16T17:57:33.740Z,101517.09
2023-03-16T18:00:02.586Z,101508.72
2023-03-16T18:02:47.316Z,101516.75
2023-03-16T18:05:25.510Z,101519.97
2023-03-16T18:07:53.931Z,101516.09
2023-03-16T18:10:27.596Z,101526.88
2023-03-16T18:13:09.038Z,101525.44
2023-03-16T18:15:41.813Z,101528.94
2023-03-16T18:18:18.161Z,101524.63
2023-03-16T18:20:46.213Z,101543.16
2023-03-16T18:23:33.854Z,101542.09
2023-03-16T18:26:04.092Z,101534.28
2023-03-16T18:28:32.283Z,101551.56
2023-03-16T18:31:09.357Z,101553.47
2023-03-16T18:33:39.664Z,101556.16
2023-03-16T18:36:16.174Z,101554.69
2023-03-16T18:38:47.085Z,101562.06
2023-03-16T18:41:18.814Z,101571.66
2023-03-16T18:43:47.334Z,101571.72
2023-03-16T18:46:24.277Z,101563.97
2023-03-16T18:48:54.093Z,101574.25
2023-03-16T18:51:30.173Z,101577.97
2023-03-16T18:53:57.828Z,101586.19
2023-03-16T18:56:27.320Z,101583.09
2023-03-16T18:58:56.313Z,101583.81
2023-03-16T19:01:33.401Z,101591.41
2023-03-16T19:04:02.282Z,101581.19
2023-03-16T19:06:35.063Z,101600.28
2023-03-16T19:09:15.011Z,101588.19
2023-03-16T19:11:44.243Z,101596.06
2023-03-16T19:14:20.228Z,101601.16
2023-03-16T19:16:48.671Z,101587.22
2023-03-16T19:19:15.938Z,101588.94
2023-03-16T19:21:44.170Z,101591.88
2023-03-16T19:24:30.987Z,101601.38
2023-03-16T19:26:58.856Z,101608.38
2023-03-16T19:29:34.542Z,101601.25
2023-03-16T19:32:02.685Z,101592.59
2023-03-16T19:34:30.025Z,101596.88
2023-03-16T19:36:58.719Z,101596.06
2023-03-16T19:39:28.063Z,101595.16
2023-03-16T19:42:01.672Z,101588.91
2023-03-16T19:44:29.401Z,101589.78
2023-03-16T19:46:57.088Z,101594.03
2023-03-16T19:49:27.397Z,101581.97
2023-03-16T19:51:56.022Z,101581.06
2023-03-16T19:54:27.371Z,101593.34
2023-03-16T19:56:56.410Z,101592.56
2023-03-16T19:59:27.115Z,101596.94
2023-03-16T20:01:54.182Z,101592.44
2023-03-16T20:04:24.024Z,101596.72
2023-03-16T20:06:52.273Z,101591.75
2023-03-16T20:09:19.978Z,101602.22
2023-03-16T20:11:48.921Z,101603.69
2023-03-16T20:14:31.072Z,101605.53
2023-03-16T20:17:01.302Z,101615.13
2023-03-16T20:19:29.217Z,101612.66
2023-03-16T20:21:56.721Z,101607.44
2023-03-16T20:24:29.308Z,101617.91
2023-03-16T20:26:56.952Z,101604.84
2023-03-16T20:29:31.406Z,101603.03
2023-03-16T20:32:00.234Z,101611.44
2023-03-16T20:34:31.398Z,101609.06
2023-03-16T20:36:59.759Z,101606.25
2023-03-16T20:39:28.477Z,101613.34
2023-03-16T20:41:57.456Z,101616.91
2023-03-16T20:44:25.590Z,101615.78
2023-03-16T20:46:52.765Z,101605.53
2023-03-16T20:49:22.904Z,101609.94
2023-03-16T20:51:51.634Z,101606.44
2023-03-16T20:54:19.407Z,101607.22
2023-03-16T20:56:47.074Z,101616.66
2023-03-16T20:59:20.515Z,101614.06
2023-03-16T21:01:48.198Z,101604.50
2023-03-16T21:04:21.094Z,101608.09
2023-03-16T21:06:51.543Z,101601.94
2023-03-16T21:09:20.222Z,101619.50
2023-03-16T21:11:48.196Z,101618.75
2023-03-16T21:14:22.218Z,101609.00
2023-03-16T21:16:50.204Z,101623.84
2023-03-16T21:19:20.897Z,101628.06
2023-03-16T21:21:48.092Z,101625.63
2023-03-16T21:24:16.213Z,101625.53
2023-03-16T21:26:44.934Z,101634.50
2023-03-16T21:29:16.549Z,101631.75
2023-03-16T21:31:44.015Z,101629.13
2023-03-16T21:34:30.870Z,101637.00
2023-03-16T21:37:00.335Z,101640.63
2023-03-16T21:39:29.714Z,101639.72
2023-03-16T21:41:56.756Z,101642.38
2023-03-16T21:44:23.992Z,101641.50
2023-03-16T21:46:51.265Z,101635.44
2023-03-16T21:49:21.096Z,101637.09
2023-03-16T21:51:50.493Z,101639.75
2023-03-16T21:54:19.372Z,101637.97
2023-03-16T21:56:48.076Z,101638.56
2023-03-16T21:59:15.788Z,101637.03
2023-03-16T22:02:00.426Z,101641.34
2023-03-16T22:04:28.906Z,101639.75
2023-03-16T22:06:55.972Z,101631.84
2023-03-16T22:09:25.115Z,101637.94
2023-03-16T22:11:52.415Z,101634.50
2023-03-16T22:14:19.576Z,101636.94
2023-03-16T22:16:46.897Z,101634.19
2023-03-16T22:19:14.835Z,101644.16
2023-03-16T22:21:44.440Z,101643.28
2023-03-16T22:24:18.165Z,101635.22
2023-03-16T22:26:46.531Z,101641.50
2023-03-16T22:29:25.504Z,101644.09
2023-03-16T22:32:07.062Z,101647.19
2023-03-16T22:34:49.941Z,101635.16
2023-03-16T22:37:24.338Z,101637.63
2023-03-16T22:39:51.941Z,101629.91
2023-03-16T22:42:39.527Z,101638.56
2023-03-16T22:45:27.758Z,101632.53
2023-03-16T22:47:56.704Z,101637.75
2023-03-16T22:50:26.808Z,101639.44
2023-03-16T22:52:58.125Z,101636.94
2023-03-16T22:55:30.638Z,101634.25
2023-03-16T22:58:27.368Z,101646.56
2023-03-16T23:00:55.329Z,101640.31
2023-03-16T23:03:23.961Z,101635.22
2023-03-16T23:05:53.168Z,101637.94
2023-03-16T23:08:23.531Z,101633.50
2023-03-16T23:10:54.587Z,101630.97
2023-03-16T23:13:25.336Z,101629.97
2023-03-16T23:15:53.659Z,101626.63
2023-03-16T23:18:24.272Z,101629.25
2023-03-16T23:20:52.800Z,101618.72
2023-03-16T23:23:20.397Z,101626.59
2023-03-16T23:25:48.377Z,101626.59
2023-03-16T23:28:23.232Z,101615.94
2023-03-16T23:30:50.794Z,101623.03
2023-03-16T23:33:17.991Z,101615.84
2023-03-16T23:35:46.904Z,101610.78
2023-03-16T23:38:14.811Z,101621.06
2023-03-16T23:40:41.953Z,101625.63
2023-03-16T23:43:09.356Z,101614.38
2023-03-16T23:45:46.171Z,101622.22
2023-03-16T23:48:19.574Z,101616.19
2023-03-16T23:50:50.183Z,101616.81
2023-03-16T23:53:19.143Z,101614.34
2023-03-16T23:55:48.849Z,101618.72
2023-03-16T23:58:16.763Z,101615.16
